createdAt,value
2022-08-20T00:02:18.050Z,28.30
2022-08-20T00:04:50.760Z,28.40
2022-08-20T00:07:22.020Z,28.40
2022-08-20T00:09:53.234Z,28.50
2022-08-20T00:12:24.374Z,28.60
2022-08-20T00:14:55.732Z,28.90
2022-08-20T00:17:27.200Z,29.00
2022-08-20T00:19:58.527Z,29.10
2022-08-20T00:22:29.590Z,29.20
2022-08-20T00:25:01.048Z,29.30
2022-08-20T00:27:32.237Z,29.30
2022-08-20T00:30:03.714Z,29.40
2022-08-20T00:32:44.156Z,29.50
2022-08-20T00:35:17.552Z,29.60
2022-08-20T00:37:49.400Z,29.70
2022-08-20T00:40:27.005Z,29.70
2022-08-20T00:43:02.475Z,29.60
2022-08-20T00:45:36.356Z,29.70
2022-08-20T00:48:07.576Z,29.80
2022-08-20T00:50:40.827Z,29.80
2022-08-20T00:53:12.234Z,29.80
2022-08-20T00:55:43.843Z,29.90
2022-08-20T00:58:15.093Z,29.90
2022-08-20T01:00:49.065Z,30.00
2022-08-20T01:03:21.975Z,30.00
2022-08-20T01:05:54.521Z,30.10
2022-08-20T01:08:28.279Z,30.20
2022-08-20T01:11:22.412Z,30.30
2022-08-20T01:13:52.917Z,30.30
2022-08-20T01:16:49.472Z,30.40
2022-08-20T01:19:30.328Z,30.40
2022-08-20T01:22:25.408Z,30.30
2022-08-20T01:25:06.597Z,30.20
2022-08-20T01:27:42.698Z,30.20
2022-08-20T01:30:14.435Z,30.20
2022-08-20T01:32:45.491Z,30.20
2022-08-20T01:35:24.380Z,30.20
2022-08-20T01:37:55.917Z,30.20
2022-08-20T01:40:49.712Z,30.30
2022-08-20T01:43:22.107Z,30.40
2022-08-20T01:45:56.032Z,30.50
2022-08-20T01:48:27.516Z,30.60
2022-08-20T01:51:15.054Z,30.70
2022-08-20T01:53:50.997Z,30.80
2022-08-20T01:56:30.229Z,30.90
2022-08-20T01:59:04.672Z,30.90
2022-08-20T02:01:46.469Z,30.90
2022-08-20T02:04:39.564Z,31.10
2022-08-20T02:07:16.992Z,31.10
2022-08-20T02:09:49.669Z,31.30
2022-08-20T02:12:21.476Z,31.50
2022-08-20T02:14:54.962Z,31.60
2022-08-20T02:17:29.513Z,31.70
2022-08-20T02:20:04.929Z,31.50
2022-08-20T02:22:50.712Z,31.40
2022-08-20T02:25:25.290Z,31.40
2022-08-20T02:27:58.253Z,31.40
2022-08-20T02:30:40.239Z,31.50
2022-08-20T02:33:14.095Z,31.60
2022-08-20T02:35:47.912Z,31.70
2022-08-20T02:38:19.978Z,31.70
2022-08-20T02:40:52.080Z,31.60
2022-08-20T02:43:23.466Z,31.70
2022-08-20T02:45:55.964Z,31.70
2022-08-20T02:48:27.627Z,31.80
2022-08-20T02:51:03.215Z,31.80
2022-08-20T02:53:37.907Z,31.70
2022-08-20T02:56:10.339Z,31.70
2022-08-20T02:58:42.889Z,31.70
2022-08-20T03:01:16.866Z,31.80
2022-08-20T03:03:48.580Z,31.80
2022-08-20T03:06:20.401Z,31.90
2022-08-20T03:08:51.664Z,32.00
2022-08-20T03:11:23.389Z,32.10
2022-08-20T03:13:54.943Z,32.30
2022-08-20T03:16:26.998Z,32.50
2022-08-20T03:18:59.776Z,32.40
2022-08-20T03:21:32.044Z,32.30
2022-08-20T03:24:03.318Z,32.10
2022-08-20T03:26:34.560Z,32.10
2022-08-20T03:29:06.445Z,32.20
2022-08-20T03:31:37.915Z,32.10
2022-08-20T03:34:09.014Z,32.10
2022-08-20T03:36:40.290Z,32.20
2022-08-20T03:39:15.842Z,32.20
2022-08-20T03:41:47.952Z,32.30
2022-08-20T03:44:20.049Z,32.50
2022-08-20T03:46:51.520Z,32.80
2022-08-20T03:49:22.718Z,32.90
2022-08-20T03:51:57.702Z,32.90
2022-08-20T03:54:31.967Z,32.70
2022-08-20T03:57:05.167Z,32.80
2022-08-20T03:59:46.027Z,32.90
2022-08-20T04:02:21.357Z,32.80
2022-08-20T04:04:52.869Z,32.90
2022-08-20T04:07:29.895Z,33.20
2022-08-20T04:10:01.332Z,33.30
2022-08-20T04:12:32.773Z,33.30
2022-08-20T04:15:06.866Z,33.30
2022-08-20T04:17:43.580Z,33.70
2022-08-20T04:20:24.061Z,34.00
2022-08-20T04:22:59.729Z,34.40
2022-08-20T04:25:35.812Z,35.00
2022-08-20T04:28:09.981Z,34.70
2022-08-20T04:30:48.127Z,34.90
2022-08-20T04:33:34.027Z,34.80
2022-08-20T04:36:08.509Z,34.30
2022-08-20T04:38:49.993Z,34.30
2022-08-20T04:41:25.591Z,34.10
2022-08-20T04:43:59.777Z,34.20
2022-08-20T04:46:33.732Z,33.90
2022-08-20T04:49:05.531Z,33.90
2022-08-20T04:51:37.511Z,33.40
2022-08-20T04:54:08.884Z,33.40
2022-08-20T04:56:41.167Z,33.40
2022-08-20T04:59:12.487Z,33.40
2022-08-20T05:01:43.999Z,33.40
2022-08-20T05:04:15.502Z,33.30
2022-08-20T05:06:46.800Z,33.60
2022-08-20T05:09:37.899Z,33.80
2022-08-20T05:12:17.125Z,33.90
2022-08-20T05:14:48.812Z,33.60
2022-08-20T05:17:20.468Z,33.30
2022-08-20T05:19:53.740Z,33.30
2022-08-20T05:22:26.145Z,33.60
2022-08-20T05:25:03.413Z,33.90
2022-08-20T05:28:02.043Z,34.20
2022-08-20T05:30:35.143Z,34.20
2022-08-20T05:33:08.157Z,34.20
2022-08-20T05:36:19.024Z,34.20
2022-08-20T05:38:50.257Z,34.20
2022-08-20T05:41:42.447Z,34.50
2022-08-20T05:44:19.578Z,34.90
2022-08-20T05:46:51.541Z,34.40
2022-08-20T05:49:23.674Z,34.00
2022-08-20T05:51:55.207Z,33.80
2022-08-20T05:54:27.791Z,33.70
2022-08-20T05:56:59.319Z,33.60
2022-08-20T05:59:30.932Z,33.90
2022-08-20T06:02:03.543Z,34.30
2022-08-20T06:04:36.133Z,34.50
2022-08-20T06:07:09.146Z,34.60
2022-08-20T06:10:00.262Z,34.70
2022-08-20T06:12:51.376Z,34.90
2022-08-20T06:15:23.699Z,34.60
2022-08-20T06:17:58.116Z,34.30
2022-08-20T06:20:30.624Z,34.10
2022-08-20T06:23:21.984Z,34.10
2022-08-20T06:25:54.789Z,34.00
2022-08-20T06:28:26.506Z,33.90
2022-08-20T06:30:57.844Z,33.80
2022-08-20T06:33:49.096Z,33.80
2022-08-20T06:36:20.425Z,33.60
2022-08-20T06:38:53.346Z,33.50
2022-08-20T06:41:36.318Z,33.30
2022-08-20T06:44:09.944Z,33.20
2022-08-20T06:46:41.662Z,33.10
2022-08-20T06:49:13.737Z,33.00
2022-08-20T06:51:44.959Z,33.00
2022-08-20T06:54:29.242Z,33.00
2022-08-20T06:57:00.958Z,33.10
2022-08-20T06:59:32.825Z,33.30
2022-08-20T07:02:04.262Z,33.40
2022-08-20T07:04:35.647Z,33.60
2022-08-20T07:07:07.221Z,33.60
2022-08-20T07:09:42.345Z,33.20
2022-08-20T07:12:13.529Z,33.00
2022-08-20T07:14:44.907Z,32.70
2022-08-20T07:17:16.519Z,32.60
2022-08-20T07:19:47.836Z,32.50
2022-08-20T07:22:39.155Z,32.40
2022-08-20T07:25:14.299Z,32.20
2022-08-20T07:27:46.905Z,32.00
2022-08-20T07:30:56.549Z,31.70
2022-08-20T07:33:30.680Z,31.50
2022-08-20T07:36:05.953Z,31.40
2022-08-20T07:38:37.508Z,31.30
2022-08-20T07:41:14.614Z,31.30
2022-08-20T07:43:49.760Z,31.30
2022-08-20T07:46:22.970Z,31.40
2022-08-20T07:48:54.157Z,31.30
2022-08-20T07:51:26.076Z,31.30
2022-08-20T07:53:59.811Z,31.30
2022-08-20T07:56:31.078Z,31.20
2022-08-20T07:59:03.111Z,31.20
2022-08-20T08:01:35.260Z,31.20
2022-08-20T08:04:06.943Z,31.30
2022-08-20T08:06:42.289Z,31.30
2022-08-20T08:09:16.469Z,31.30
2022-08-20T08:11:52.118Z,31.30
2022-08-20T08:14:34.072Z,31.60
2022-08-20T08:17:07.639Z,31.80
2022-08-20T08:19:44.708Z,32.00
2022-08-20T08:22:19.747Z,31.90
2022-08-20T08:24:57.404Z,31.90
2022-08-20T08:27:50.373Z,31.80
2022-08-20T08:30:22.263Z,31.80
2022-08-20T08:33:11.622Z,32.00
2022-08-20T08:35:48.200Z,32.00
2022-08-20T08:38:20.030Z,32.00
2022-08-20T08:40:59.133Z,32.20
2022-08-20T08:43:31.999Z,32.50
2022-08-20T08:46:07.281Z,32.80
2022-08-20T08:49:07.085Z,32.90
2022-08-20T08:52:03.807Z,32.90
2022-08-20T08:54:39.105Z,33.20
2022-08-20T08:57:11.701Z,33.30
2022-08-20T08:59:48.424Z,33.20
2022-08-20T09:02:36.864Z,32.80
2022-08-20T09:05:16.550Z,32.50
2022-08-20T09:07:53.187Z,32.20
2022-08-20T09:10:26.344Z,32.30
2022-08-20T09:12:57.698Z,32.50
2022-08-20T09:15:29.290Z,32.60
2022-08-20T09:18:00.813Z,32.20
2022-08-20T09:20:32.821Z,31.50
2022-08-20T09:23:24.118Z,30.20
2022-08-20T09:25:55.550Z,29.30
2022-08-20T09:28:32.216Z,28.90
2022-08-20T09:31:40.026Z,28.80
2022-08-20T09:34:15.646Z,29.00
2022-08-20T09:36:50.172Z,29.10
2022-08-20T09:43:08.077Z,29.00
2022-08-20T09:45:39.725Z,28.80
2022-08-20T09:48:11.257Z,28.90
2022-08-20T09:50:49.807Z,29.00
2022-08-20T09:53:23.626Z,29.00
2022-08-20T09:55:58.670Z,29.10
2022-08-20T09:58:52.375Z,29.10
2022-08-20T10:01:25.301Z,29.20
2022-08-20T10:03:56.671Z,29.10
2022-08-20T10:06:33.399Z,29.00
2022-08-20T10:09:07.225Z,28.90
2022-08-20T10:11:38.490Z,29.00
2022-08-20T10:14:12.751Z,29.10
2022-08-20T10:16:45.259Z,28.90
2022-08-20T10:19:16.553Z,28.90
2022-08-20T10:21:47.750Z,29.00
2022-08-20T10:24:19.517Z,29.00
2022-08-20T10:26:51.144Z,29.00
2022-08-20T10:29:22.351Z,29.10
2022-08-20T10:31:53.872Z,29.10
2022-08-20T10:34:26.078Z,29.10
2022-08-20T10:36:58.366Z,29.10
2022-08-20T10:39:52.283Z,29.10
2022-08-20T10:42:25.122Z,29.00
2022-08-20T10:44:56.683Z,28.90
2022-08-20T10:47:31.541Z,28.90
2022-08-20T10:50:33.496Z,28.80
2022-08-20T10:53:10.017Z,28.70
2022-08-20T10:55:41.402Z,28.60
2022-08-20T10:58:14.555Z,28.60
2022-08-20T11:00:47.476Z,28.60
2022-08-20T11:03:18.915Z,28.50
2022-08-20T11:05:50.402Z,28.60
2022-08-20T11:08:33.543Z,28.60
2022-08-20T11:11:07.516Z,28.60
2022-08-20T11:13:38.958Z,28.60
2022-08-20T11:16:10.318Z,28.50
2022-08-20T11:18:46.889Z,28.40
2022-08-20T11:21:19.034Z,28.10
2022-08-20T11:23:51.633Z,27.80
2022-08-20T11:26:28.019Z,27.90
2022-08-20T11:28:59.490Z,28.10
2022-08-20T11:31:30.977Z,28.20
2022-08-20T11:34:02.331Z,28.20
2022-08-20T11:36:34.356Z,28.20
2022-08-20T11:39:06.498Z,28.00
2022-08-20T11:41:37.911Z,28.00
2022-08-20T11:44:21.163Z,28.00
2022-08-20T11:46:53.106Z,28.10
2022-08-20T11:49:25.493Z,28.00
2022-08-20T11:51:56.849Z,28.00
2022-08-20T11:54:51.800Z,28.00
2022-08-20T11:57:31.349Z,28.00
2022-08-20T12:00:07.746Z,27.90
2022-08-20T12:02:40.005Z,27.80
2022-08-20T12:05:13.822Z,27.90
2022-08-20T12:07:45.369Z,27.90
2022-08-20T12:10:20.952Z,28.00
2022-08-20T12:12:52.680Z,27.90
2022-08-20T12:15:24.936Z,27.80
2022-08-20T12:17:57.477Z,27.90
2022-08-20T12:20:33.077Z,27.90
2022-08-20T12:23:07.210Z,27.90
2022-08-20T12:25:38.476Z,27.90
2022-08-20T12:28:09.811Z,27.80
2022-08-20T12:30:41.923Z,27.80
2022-08-20T12:33:40.476Z,27.80
2022-08-20T12:36:14.973Z,27.70
2022-08-20T12:38:47.654Z,27.70
2022-08-20T12:41:19.064Z,27.70
2022-08-20T12:44:13.227Z,27.60
2022-08-20T12:46:46.315Z,27.50
2022-08-20T12:49:21.037Z,27.60
2022-08-20T12:51:52.373Z,27.60
2022-08-20T12:54:23.717Z,27.70
2022-08-20T12:56:55.063Z,27.80
2022-08-20T12:59:27.827Z,27.80
2022-08-20T13:02:03.434Z,27.80
2022-08-20T13:04:47.190Z,27.80
2022-08-20T13:07:19.486Z,27.80
2022-08-20T13:09:50.946Z,27.70
2022-08-20T13:12:22.565Z,27.70
2022-08-20T13:14:54.605Z,27.70
2022-08-20T13:17:38.495Z,27.60
2022-08-20T13:20:18.028Z,27.50
2022-08-20T13:22:49.952Z,27.50
2022-08-20T13:25:21.867Z,27.40
2022-08-20T13:27:58.968Z,27.40
2022-08-20T13:30:30.509Z,27.50
2022-08-20T13:33:01.942Z,27.50
2022-08-20T13:36:02.556Z,27.50
2022-08-20T13:38:40.861Z,27.40
2022-08-20T13:41:18.672Z,27.40
2022-08-20T13:44:19.160Z,27.40
2022-08-20T13:46:53.568Z,27.30
2022-08-20T13:49:25.348Z,27.20
2022-08-20T13:52:00.284Z,27.30
2022-08-20T13:54:33.417Z,27.20
2022-08-20T13:57:28.497Z,27.30
2022-08-20T14:00:00.970Z,27.30
2022-08-20T14:02:35.392Z,27.40
2022-08-20T14:05:07.280Z,27.40
2022-08-20T14:07:40.578Z,27.50
2022-08-20T14:10:16.713Z,27.50
2022-08-20T14:12:48.424Z,27.50
2022-08-20T14:15:22.035Z,27.50
2022-08-20T14:17:58.011Z,27.50
2022-08-20T14:20:32.643Z,27.40
2022-08-20T14:23:04.830Z,27.40
2022-08-20T14:25:39.028Z,27.40
2022-08-20T14:28:20.198Z,27.50
2022-08-20T14:30:52.901Z,27.50
2022-08-20T14:33:28.746Z,27.60
2022-08-20T14:36:00.118Z,27.50
2022-08-20T14:38:31.367Z,27.60
2022-08-20T14:41:04.190Z,27.50
2022-08-20T14:43:35.727Z,27.50
2022-08-20T14:46:27.323Z,27.60
2022-08-20T14:49:02.775Z,27.60
2022-08-20T14:51:34.134Z,27.60
2022-08-20T14:54:05.879Z,27.60
2022-08-20T14:56:37.388Z,27.60
2022-08-20T14:59:09.278Z,27.70
2022-08-20T15:02:09.558Z,27.60
2022-08-20T15:04:42.099Z,27.60
2022-08-20T15:07:35.070Z,27.60
2022-08-20T15:10:09.907Z,27.60
2022-08-20T15:12:43.242Z,27.60
2022-08-20T15:15:17.421Z,27.60
2022-08-20T15:18:12.466Z,27.60
2022-08-20T15:20:44.335Z,27.60
2022-08-20T15:23:15.916Z,27.60
2022-08-20T15:25:50.014Z,27.60
2022-08-20T15:28:42.301Z,27.70
2022-08-20T15:31:34.069Z,27.50
2022-08-20T15:34:07.537Z,27.60
2022-08-20T15:37:09.675Z,27.60
2022-08-20T15:40:02.291Z,27.60
2022-08-20T15:42:34.444Z,27.50
2022-08-20T15:45:10.767Z,27.40
2022-08-20T15:47:56.382Z,27.30
2022-08-20T15:50:33.622Z,27.40
2022-08-20T15:53:13.379Z,27.30
2022-08-20T15:56:22.460Z,27.30
2022-08-20T15:59:30.087Z,27.10
2022-08-20T16:02:17.469Z,27.10
2022-08-20T16:04:56.743Z,27.20
2022-08-20T16:07:34.014Z,27.20
2022-08-20T16:10:41.082Z,27.40
2022-08-20T16:13:43.589Z,27.30
2022-08-20T16:16:29.230Z,27.30
2022-08-20T16:19:02.635Z,27.30
2022-08-20T16:21:38.975Z,27.30
2022-08-20T16:24:31.598Z,27.30
2022-08-20T16:27:44.169Z,27.30
2022-08-20T16:30:23.420Z,27.30
2022-08-20T16:33:04.849Z,27.30
2022-08-20T16:36:03.238Z,27.40
2022-08-20T16:39:01.258Z,27.40
2022-08-20T16:41:46.361Z,27.30
2022-08-20T16:44:18.380Z,27.30
2022-08-20T16:47:11.684Z,27.40
2022-08-20T16:50:03.002Z,27.20
2022-08-20T16:52:35.830Z,27.30
2022-08-20T16:55:07.402Z,27.30
2022-08-20T16:57:39.322Z,27.30
2022-08-20T17:00:25.047Z,27.30
2022-08-20T17:02:56.880Z,27.30
2022-08-20T17:05:32.109Z,27.30
2022-08-20T17:08:06.952Z,27.30
2022-08-20T17:10:58.211Z,27.30
2022-08-20T17:13:38.074Z,27.30
2022-08-20T17:16:34.514Z,27.20
2022-08-20T17:19:17.320Z,27.10
2022-08-20T17:21:50.836Z,27.10
2022-08-20T17:24:42.068Z,27.10
2022-08-20T17:27:16.485Z,27.10
2022-08-20T17:30:04.963Z,27.00
2022-08-20T17:32:36.289Z,27.00
2022-08-20T17:35:07.882Z,27.00
2022-08-20T17:37:40.849Z,27.00
2022-08-20T17:40:18.497Z,27.00
2022-08-20T17:43:04.689Z,26.90
2022-08-20T17:45:38.839Z,27.00
2022-08-20T17:48:27.277Z,27.00
2022-08-20T17:50:59.355Z,27.00
2022-08-20T17:53:38.887Z,27.00
2022-08-20T17:56:25.897Z,27.00
2022-08-20T17:59:05.983Z,27.10
2022-08-20T18:01:39.218Z,27.00
2022-08-20T18:04:10.976Z,27.20
2022-08-20T18:06:55.102Z,27.10
2022-08-20T18:09:34.942Z,27.20
2022-08-20T18:12:18.455Z,27.20
2022-08-20T18:15:19.222Z,27.20
2022-08-20T18:18:57.333Z,27.20
2022-08-20T18:22:03.475Z,27.20
2022-08-20T18:24:43.326Z,27.20
2022-08-20T18:27:18.868Z,27.20
2022-08-20T18:30:00.583Z,27.10
2022-08-20T18:32:39.218Z,27.10
2022-08-20T18:35:15.146Z,27.20
2022-08-20T18:37:47.703Z,27.20
2022-08-20T18:40:39.130Z,27.10
2022-08-20T18:43:31.784Z,27.00
2022-08-20T18:46:22.812Z,26.90
2022-08-20T18:48:59.946Z,27.00
2022-08-20T18:51:50.201Z,27.00
2022-08-20T18:54:35.096Z,26.90
2022-08-20T18:57:22.090Z,27.00
2022-08-20T19:00:13.278Z,27.00
2022-08-20T19:03:20.585Z,27.00
2022-08-20T19:06:17.749Z,27.00
2022-08-20T19:09:10.494Z,27.10
2022-08-20T19:12:02.652Z,27.10
2022-08-20T19:14:56.227Z,26.90
2022-08-20T19:18:17.692Z,26.80
2022-08-20T19:20:59.084Z,26.70
2022-08-20T19:23:40.234Z,26.60
2022-08-20T19:26:25.141Z,26.60
2022-08-20T19:29:02.320Z,26.40
2022-08-20T19:31:36.099Z,26.40
2022-08-20T19:34:27.756Z,26.60
2022-08-20T19:37:27.864Z,26.60
2022-08-20T19:40:01.528Z,26.70
2022-08-20T19:42:35.727Z,26.70
2022-08-20T19:45:31.076Z,26.70
2022-08-20T19:48:27.774Z,26.70
2022-08-20T19:51:04.164Z,26.60
2022-08-20T19:53:38.844Z,26.70
2022-08-20T19:56:20.430Z,26.80
2022-08-20T19:59:10.406Z,26.70
2022-08-20T20:01:42.707Z,26.70
2022-08-20T20:04:20.427Z,26.70
2022-08-20T20:06:52.903Z,26.80
2022-08-20T20:09:29.535Z,26.70
2022-08-20T20:12:22.432Z,26.60
2022-08-20T20:14:56.805Z,26.60
2022-08-20T20:17:35.924Z,26.50
2022-08-20T20:20:31.623Z,26.50
2022-08-20T20:23:15.693Z,26.50
2022-08-20T20:25:51.081Z,26.50
2022-08-20T20:28:31.511Z,26.50
2022-08-20T20:31:10.083Z,26.50
2022-08-20T20:33:44.692Z,26.50
2022-08-20T20:36:35.185Z,26.40
2022-08-20T20:39:32.237Z,26.30
2022-08-20T20:42:06.665Z,26.10
2022-08-20T20:44:40.790Z,26.10
2022-08-20T20:47:50.462Z,26.10
2022-08-20T20:50:37.154Z,26.20
2022-08-20T20:53:08.864Z,26.10
2022-08-20T20:55:41.426Z,26.00
2022-08-20T20:58:13.250Z,26.00
2022-08-20T21:00:49.226Z,26.10
2022-08-20T21:03:20.715Z,26.10
2022-08-20T21:05:52.428Z,26.00
2022-08-20T21:08:23.936Z,25.80
2022-08-20T21:10:55.624Z,26.00
2022-08-20T21:13:26.996Z,26.10
2022-08-20T21:15:58.151Z,26.10
2022-08-20T21:18:29.375Z,26.20
2022-08-20T21:21:01.192Z,26.20
2022-08-20T21:23:39.994Z,26.20
2022-08-20T21:26:13.079Z,26.20
2022-08-20T21:28:44.470Z,26.10
2022-08-20T21:31:17.993Z,26.00
2022-08-20T21:33:49.221Z,26.00
2022-08-20T21:36:20.435Z,26.10
2022-08-20T21:38:52.595Z,26.20
2022-08-20T21:41:25.104Z,26.20
2022-08-20T21:44:11.418Z,26.20
2022-08-20T21:46:43.096Z,26.20
2022-08-20T21:49:26.731Z,26.30
2022-08-20T21:51:59.610Z,26.20
2022-08-20T21:54:33.165Z,26.30
2022-08-20T21:57:24.722Z,26.30
2022-08-20T22:00:00.423Z,26.30
2022-08-20T22:02:35.045Z,26.30
2022-08-20T22:05:12.641Z,26.30
2022-08-20T22:07:53.134Z,26.30
2022-08-20T22:10:58.560Z,26.30
2022-08-20T22:14:19.064Z,26.40
2022-08-20T22:16:50.675Z,26.40
2022-08-20T22:19:22.296Z,26.50
2022-08-20T22:21:55.376Z,26.60
2022-08-20T22:24:30.523Z,26.60
2022-08-20T22:27:02.232Z,26.60
2022-08-20T22:29:34.067Z,26.60
2022-08-20T22:32:06.620Z,26.60
2022-08-20T22:34:39.524Z,26.60
2022-08-20T22:37:12.704Z,26.50
2022-08-20T22:39:44.448Z,26.50
2022-08-20T22:42:16.101Z,26.50
2022-08-20T22:44:47.797Z,26.40
2022-08-20T22:47:25.323Z,26.50
2022-08-20T22:49:58.385Z,26.40
2022-08-20T22:52:29.959Z,26.20
2022-08-20T22:55:01.695Z,26.30
2022-08-20T22:57:37.640Z,26.40
2022-08-20T23:00:14.672Z,26.40
2022-08-20T23:02:50.618Z,26.30
2022-08-20T23:05:25.333Z,26.40
2022-08-20T23:08:01.394Z,26.50
2022-08-20T23:10:34.117Z,26.40
2022-08-20T23:13:05.969Z,26.50
2022-08-20T23:15:57.023Z,26.60
2022-08-20T23:18:28.555Z,26.60
2022-08-20T23:21:00.792Z,26.50
2022-08-20T23:23:32.258Z,26.60
2022-08-20T23:26:03.724Z,26.70
2022-08-20T23:28:56.178Z,26.90
2022-08-20T23:31:27.646Z,26.90
2022-08-20T23:33:58.675Z,27.00
2022-08-20T23:36:29.928Z,27.10
2022-08-20T23:39:01.495Z,27.10
2022-08-20T23:41:38.669Z,27.20
2022-08-20T23:44:26.179Z,27.10
2022-08-20T23:47:00.510Z,27.10
2022-08-20T23:49:32.915Z,27.20
2022-08-20T23:52:04.666Z,27.30
2022-08-20T23:54:36.092Z,27.20
2022-08-20T23:57:08.113Z,27.30
2022-08-20T23:59:39.668Z,27.30
